Time;durP1;ratioP1;P1;durP2;ratioP2;P2;SDS_P1;SDS_P2;PMS_P1;PMS_P2;Temp;Humidity;BMP_temperature;BMP_pressure;BME280_temperature;BME280_humidity;BME280_pressure;Samples;Min_cycle;Max_cycle;Signal;HPM_P1;HPM_P2
2023/10/12 00:03:00;;;;;;;5.82;3.42;;;14.80;99.90;;;;;;8284213;28;20030;-82
2023/10/12 00:07:08;;;;;;;10.55;3.72;;;14.90;99.90;;;;;;8258937;28;20407;-82
2023/10/12 00:11:09;;;;;;;7.18;4.00;;;14.60;99.90;;;;;;8272854;28;20084;-82
2023/10/12 00:15:28;;;;;;;8.32;4.07;;;14.30;99.90;;;;;;8265713;28;20072;-82
2023/10/12 00:19:29;;;;;;;6.75;3.63;;;14.50;99.90;;;;;;8244696;28;20030;-82
2023/10/12 00:23:33;;;;;;;5.88;3.70;;;14.70;99.90;;;;;;8281511;28;20501;-83
2023/10/12 00:27:34;;;;;;;7.38;3.97;;;14.80;99.90;;;;;;8260699;28;20164;-82
2023/10/12 00:31:38;;;;;;;7.80;3.80;;;14.80;99.90;;;;;;8263556;28;20126;-81
2023/10/12 00:35:39;;;;;;;11.98;3.90;;;14.70;99.90;;;;;;8251712;28;20036;-82
2023/10/12 00:48:16;;;;;;;9.07;4.35;;;14.50;99.90;;;;;;8273900;28;20037;-84
2023/10/12 00:52:33;;;;;;;7.95;3.58;;;14.50;99.90;;;;;;8255542;28;20113;-82
2023/10/12 00:56:36;;;;;;;8.07;3.75;;;14.40;99.90;;;;;;8281856;28;20022;-82
2023/10/12 01:00:54;;;;;;;14.80;3.83;;;14.30;99.90;;;;;;8263958;28;20021;-82
2023/10/12 01:04:54;;;;;;;10.40;4.05;;;14.30;99.90;;;;;;8260534;28;20383;-82
2023/10/12 01:08:59;;;;;;;7.70;3.97;;;14.20;99.90;;;;;;8245932;28;20022;-82
2023/10/12 01:13:00;;;;;;;10.07;3.88;;;14.00;99.90;;;;;;8278185;28;20029;-82
2023/10/12 01:17:04;;;;;;;8.35;3.42;;;14.30;99.90;;;;;;8258697;28;20030;-82
2023/10/12 01:21:11;;;;;;;8.02;3.97;;;14.40;99.90;;;;;;8269186;28;20049;-82
2023/10/12 01:25:19;;;;;;;13.63;4.13;;;14.60;99.90;;;;;;8281930;28;20030;-82
2023/10/12 01:29:20;;;;;;;7.05;3.60;;;14.70;99.90;;;;;;8262539;28;20030;-82
2023/10/12 01:33:21;;;;;;;9.23;3.38;;;14.80;99.90;;;;;;8279722;28;20405;-82
2023/10/12 01:37:23;;;;;;;7.40;3.40;;;14.90;99.90;;;;;;8261734;28;20509;-82
2023/10/12 01:41:27;;;;;;;9.98;3.45;;;15.00;99.90;;;;;;8272804;28;20082;-83
2023/10/12 01:45:41;;;;;;;6.20;3.40;;;15.00;99.90;;;;;;8255278;28;20471;-83
2023/10/12 01:49:45;;;;;;;6.63;3.63;;;15.10;99.90;;;;;;8265343;28;20037;-82
2023/10/12 01:53:46;;;;;;;7.13;3.22;;;15.20;99.90;;;;;;8272007;28;20486;-83
2023/10/12 01:57:53;;;;;;;4.28;2.88;;;15.30;99.90;;;;;;8244685;28;20018;-83
2023/10/12 02:02:06;;;;;;;5.95;3.15;;;15.30;99.90;;;;;;8281385;28;20033;-82
2023/10/12 02:06:13;;;;;;;9.45;2.97;;;15.10;99.90;;;;;;8250823;28;20027;-83
2023/10/12 02:10:14;;;;;;;7.00;2.88;;;15.40;99.90;;;;;;8262559;28;20080;-82
2023/10/12 02:14:23;;;;;;;4.45;2.80;;;15.60;99.90;;;;;;8281514;28;20026;-82
2023/10/12 02:18:24;;;;;;;5.10;2.72;;;15.50;99.90;;;;;;8258948;28;20502;-83
2023/10/12 02:22:28;;;;;;;10.10;3.33;;;15.60;99.90;;;;;;8257145;28;20030;-82
2023/10/12 02:30:30;;;;;;;9.48;3.38;;;15.40;99.90;;;;;;8275055;28;20042;-83
2023/10/12 02:34:31;;;;;;;6.15;2.95;;;15.20;99.90;;;;;;8276077;28;20543;-83
2023/10/12 02:38:31;;;;;;;6.50;2.83;;;15.20;99.90;;;;;;8249245;28;20031;-83
2023/10/12 02:42:38;;;;;;;6.97;2.90;;;15.30;99.90;;;;;;8269358;28;20026;-82
2023/10/12 02:46:42;;;;;;;6.47;2.85;;;15.20;99.90;;;;;;8274081;28;20026;-83
2023/10/12 02:50:57;;;;;;;7.70;3.03;;;15.20;99.90;;;;;;8266578;28;20054;-83
2023/10/12 02:55:49;;;;;;;7.93;2.63;;;15.00;99.90;;;;;;8277315;28;20485;-83
2023/10/12 02:59:25;;;;;;;4.47;2.30;;;14.90;99.90;;;;;;8261921;28;20037;-83
2023/10/12 03:07:31;;;;;;;5.28;2.60;;;14.70;99.90;;;;;;8281760;28;20081;-83
2023/10/12 03:11:32;;;;;;;5.65;2.53;;;14.70;99.90;;;;;;8268418;28;20023;-82
2023/10/12 03:15:43;;;;;;;6.00;2.53;;;14.90;99.90;;;;;;8268955;28;20040;-83
2023/10/12 03:19:48;;;;;;;5.55;2.58;;;15.00;99.90;;;;;;8269494;28;20023;-84
2023/10/12 03:23:49;;;;;;;5.18;3.03;;;14.80;99.90;;;;;;8267652;28;20109;-83
2023/10/12 03:27:53;;;;;;;5.00;2.65;;;14.80;99.90;;;;;;8273135;28;20088;-83
2023/10/12 03:31:54;;;;;;;6.45;2.60;;;14.70;99.90;;;;;;8243944;28;20034;-83
2023/10/12 03:36:17;;;;;;;5.75;2.53;;;14.90;99.90;;;;;;8249027;28;20033;-83
2023/10/12 03:44:49;;;;;;;7.32;3.00;;;14.60;99.90;;;;;;8228123;28;20077;-84
2023/10/12 03:49:04;;;;;;;4.38;2.55;;;14.70;99.90;;;;;;8253707;28;20022;-84
2023/10/12 03:53:06;;;;;;;5.55;2.83;;;14.50;99.90;;;;;;8262845;28;20509;-83
2023/10/12 03:57:19;;;;;;;5.75;2.75;;;14.40;99.90;;;;;;8249752;28;20109;-84
2023/10/12 04:05:34;;;;;;;6.30;1.98;;;14.40;99.90;;;;;;8260516;28;20501;-83
2023/10/12 04:09:43;;;;;;;4.38;2.40;;;14.60;99.90;;;;;;8267990;28;20018;-83
2023/10/12 04:17:51;;;;;;;4.28;2.30;;;14.40;99.90;;;;;;8270766;28;20019;-83
2023/10/12 04:22:06;;;;;;;5.35;2.70;;;14.10;99.90;;;;;;8255017;28;20038;-83
2023/10/12 04:30:42;;;;;;;8.88;2.22;;;14.00;99.90;;;;;;8242566;28;20431;-83
2023/10/12 04:34:49;;;;;;;4.55;2.15;;;13.90;99.90;;;;;;8244865;28;20023;-84
2023/10/12 04:43:08;;;;;;;4.35;2.53;;;14.30;99.90;;;;;;8264680;28;20141;-82
2023/10/12 04:47:10;;;;;;;8.77;2.28;;;14.50;99.90;;;;;;8268014;28;20053;-82
2023/10/12 04:51:21;;;;;;;6.22;2.40;;;14.60;99.90;;;;;;8264769;28;20050;-83
2023/10/12 04:55:22;;;;;;;;;;;14.80;99.90;;;;;;8251244;28;20020;-83
2023/10/12 04:59:28;;;;;;;4.72;2.20;;;15.20;99.90;;;;;;8254022;28;19910;-83
2023/10/12 05:03:39;;;;;;;5.00;2.13;;;15.40;99.90;;;;;;8280670;28;20030;-84
2023/10/12 05:07:54;;;;;;;6.82;2.38;;;15.30;99.90;;;;;;8246250;28;20732;-84
2023/10/12 05:11:55;;;;;;;5.75;2.20;;;15.40;99.90;;;;;;8260565;28;20039;-84
2023/10/12 05:15:55;;;;;;;3.90;2.08;;;15.40;99.90;;;;;;8261631;28;20038;-83
2023/10/12 05:19:56;;;;;;;5.45;2.72;;;15.30;99.90;;;;;;8252995;28;20132;-84
2023/10/12 05:23:57;;;;;;;3.63;2.10;;;15.40;99.90;;;;;;8249866;28;20033;-84
2023/10/12 05:28:14;;;;;;;2.72;1.90;;;15.20;99.90;;;;;;8272016;28;20478;-84
2023/10/12 05:36:18;;;;;;;9.63;2.50;;;14.70;99.90;;;;;;8271402;28;20102;-84
2023/10/12 05:40:20;;;;;;;3.42;2.45;;;14.40;99.90;;;;;;8270857;28;20038;-84
2023/10/12 05:44:26;;;;;;;5.15;2.63;;;14.10;99.90;;;;;;8250785;28;20038;-84
2023/10/12 05:48:27;;;;;;;5.55;2.10;;;14.00;99.90;;;;;;8250422;28;20026;-86
2023/10/12 05:52:28;;;;;;;4.45;2.30;;;13.70;99.90;;;;;;8254862;28;20022;-87
2023/10/12 05:56:34;;;;;;;6.50;2.50;;;13.50;99.90;;;;;;8251024;28;20022;-86
2023/10/12 06:00:35;;;;;;;8.27;2.63;;;13.30;99.90;;;;;;8250377;28;20394;-86
2023/10/12 06:04:36;;;;;;;5.30;2.42;;;13.20;99.90;;;;;;8254202;28;20027;-86
2023/10/12 06:08:37;;;;;;;7.03;2.70;;;13.30;99.90;;;;;;8260833;28;20046;-87
2023/10/12 06:12:40;;;;;;;7.53;2.70;;;13.10;99.90;;;;;;8255149;28;20552;-86
2023/10/12 06:16:41;;;;;;;5.88;2.47;;;13.00;99.90;;;;;;8268951;28;20024;-87
2023/10/12 06:20:42;;;;;;;5.68;2.35;;;12.90;99.90;;;;;;8255955;28;20100;-81
2023/10/12 06:24:44;;;;;;;4.18;2.03;;;12.90;99.90;;;;;;8249857;28;20030;-81
2023/10/12 06:28:44;;;;;;;4.80;1.98;;;13.10;99.90;;;;;;8253113;28;20109;-82
2023/10/12 06:32:48;;;;;;;5.55;2.22;;;13.60;99.90;;;;;;8250477;28;20030;-83
2023/10/12 06:36:57;;;;;;;4.07;2.10;;;14.10;99.90;;;;;;8247810;28;20030;-81
2023/10/12 06:41:27;;;;;;;8.88;2.25;;;14.40;99.90;;;;;;8253195;28;20084;-87
2023/10/12 06:45:27;;;;;;;3.35;2.05;;;14.50;99.90;;;;;;8268546;28;20106;-87
2023/10/12 06:49:33;;;;;;;5.75;2.40;;;14.70;99.90;;;;;;8250771;28;20030;-88
2023/10/12 06:53:35;;;;;;;3.17;1.95;;;15.00;99.90;;;;;;8256072;28;20038;-87
2023/10/12 06:57:37;;;;;;;6.57;2.45;;;15.20;99.90;;;;;;8256416;28;20108;-87
2023/10/12 07:05:46;;;;;;;6.07;2.50;;;15.70;99.90;;;;;;8276973;28;20022;-88
2023/10/12 07:09:47;;;;;;;4.82;2.20;;;16.10;99.90;;;;;;8272224;28;20030;-88
2023/10/12 07:13:49;;;;;;;5.32;2.33;;;16.20;99.90;;;;;;8269817;28;20057;-87
2023/10/12 07:17:51;;;;;;;6.47;2.38;;;16.40;99.90;;;;;;8253047;28;20069;-88
2023/10/12 07:21:53;;;;;;;5.68;2.42;;;16.40;99.90;;;;;;8255275;28;20029;-86
2023/10/12 07:25:59;;;;;;;5.85;2.70;;;16.50;99.90;;;;;;8252941;28;20026;-86
2023/10/12 07:30:14;;;;;;;3.72;2.20;;;16.60;99.90;;;;;;8254773;28;20026;-88
2023/10/12 07:34:18;;;;;;;6.50;2.33;;;16.60;99.90;;;;;;8270551;28;20031;-88
2023/10/12 07:38:35;;;;;;;4.07;2.30;;;16.80;99.90;;;;;;8253983;28;20533;-87
2023/10/12 07:42:36;;;;;;;5.32;2.33;;;17.10;99.90;;;;;;8252435;28;20112;-87
2023/10/12 07:46:36;;;;;;;5.82;2.22;;;17.40;99.90;;;;;;8262035;28;20018;-87
2023/10/12 07:50:47;;;;;;;6.18;2.55;;;17.70;99.90;;;;;;8261920;28;20053;-87
2023/10/12 07:59:01;;;;;;;5.40;2.63;;;18.00;99.90;;;;;;8270739;28;20037;-88
2023/10/12 08:03:06;;;;;;;5.95;2.55;;;18.00;99.90;;;;;;8268231;28;20080;-88
2023/10/12 08:07:07;;;;;;;5.47;2.60;;;18.00;99.90;;;;;;8254182;28;20027;-87
2023/10/12 08:11:28;;;;;;;4.55;2.38;;;18.20;99.90;;;;;;8246843;28;20044;-87
2023/10/12 08:15:49;;;;;;;4.03;2.53;;;18.00;99.90;;;;;;8252458;28;20041;-87
2023/10/12 08:19:55;;;;;;;5.60;2.13;;;18.20;99.90;;;;;;8262879;28;20090;-87
2023/10/12 08:24:04;;;;;;;3.40;2.30;;;18.30;99.90;;;;;;8252249;28;20034;-87
2023/10/12 08:28:18;;;;;;;4.95;2.55;;;18.40;99.90;;;;;;8275232;28;20026;-86
2023/10/12 08:36:28;;;;;;;3.85;2.25;;;18.80;99.90;;;;;;8275556;28;20108;-87
2023/10/12 08:40:29;;;;;;;3.33;2.10;;;18.90;99.90;;;;;;8262057;28;20030;-87
2023/10/12 08:44:30;;;;;;;5.00;2.35;;;19.10;99.90;;;;;;8253239;28;20080;-87
2023/10/12 08:48:35;;;;;;;8.57;2.63;;;19.30;99.90;;;;;;8254145;28;20124;-87
2023/10/12 08:52:39;;;;;;;5.15;2.33;;;19.50;99.90;;;;;;8241682;28;20019;-87
2023/10/12 08:56:45;;;;;;;5.57;2.55;;;19.80;99.90;;;;;;8260529;28;20069;-86
2023/10/12 09:01:31;;;;;;;16.90;3.15;;;20.20;99.90;;;;;;8252843;28;20568;-86
2023/10/12 09:05:12;;;;;;;3.00;2.08;;;20.50;99.90;;;;;;8250223;28;20092;-85
2023/10/12 09:09:48;;;;;;;6.30;2.80;;;20.90;99.90;;;;;;8268557;28;20029;-86
2023/10/12 09:13:35;;;;;;;6.72;2.55;;;21.20;99.90;;;;;;8255112;28;20031;-86
2023/10/12 09:17:40;;;;;;;4.20;2.60;;;21.70;99.90;;;;;;8252954;28;20022;-86
2023/10/12 09:21:57;;;;;;;8.00;2.70;;;22.10;99.90;;;;;;8251413;28;20085;-84
2023/10/12 09:30:15;;;;;;;4.25;2.97;;;22.40;99.90;;;;;;8263186;28;20084;-85
2023/10/12 09:38:38;;;;;;;6.30;2.67;;;22.80;99.90;;;;;;8274294;28;20029;-86
2023/10/12 09:42:38;;;;;;;5.63;2.65;;;23.40;99.90;;;;;;8262628;28;20026;-87
2023/10/12 09:46:49;;;;;;;6.53;2.70;;;23.80;99.90;;;;;;8266581;28;20399;-85
2023/10/12 09:50:51;;;;;;;5.18;2.78;;;24.30;99.90;;;;;;8272305;28;20031;-84
2023/10/12 09:55:08;;;;;;;6.55;2.80;;;24.70;99.90;;;;;;8260554;28;20034;-84
2023/10/12 09:59:13;;;;;;;5.68;3.25;;;24.60;99.90;;;;;;8267063;28;20446;-87
2023/10/12 10:03:17;;;;;;;5.43;2.30;;;24.50;99.90;;;;;;8251574;28;20018;-84
2023/10/12 10:07:27;;;;;;;5.90;2.75;;;24.60;99.90;;;;;;8258907;28;20073;-86
2023/10/12 10:11:27;;;;;;;7.45;2.25;;;24.20;99.90;;;;;;8255205;28;20096;-85
2023/10/12 10:15:43;;;;;;;5.85;2.72;;;23.80;99.90;;;;;;8274707;28;20094;-86
2023/10/12 10:19:51;;;;;;;4.28;2.47;;;23.70;99.90;;;;;;8264050;28;20014;-85
2023/10/12 10:23:54;;;;;;;7.85;3.10;;;23.80;99.90;;;;;;8267400;28;20486;-86
2023/10/12 10:27:58;;;;;;;5.75;3.00;;;24.20;99.90;;;;;;8279113;28;20028;-88
2023/10/12 10:31:59;;;;;;;4.85;2.67;;;24.30;99.90;;;;;;8269382;28;20192;-86
2023/10/12 10:36:10;;;;;;;5.65;2.67;;;24.50;99.90;;;;;;8288079;28;20029;-87
2023/10/12 10:40:17;;;;;;;4.93;2.50;;;24.70;99.90;;;;;;8271743;28;20022;-87
2023/10/12 10:44:21;;;;;;;4.75;2.53;;;25.10;99.90;;;;;;8272033;28;20018;-88
2023/10/12 10:48:27;;;;;;;6.40;2.85;;;26.10;98.70;;;;;;8271784;28;20069;-87
2023/10/12 10:52:32;;;;;;;6.07;3.00;;;26.70;98.10;;;;;;8267555;28;20042;-88
2023/10/12 10:56:36;;;;;;;6.00;2.70;;;27.10;96.90;;;;;;8258005;28;20570;-89
2023/10/12 11:00:44;;;;;;;3.65;2.70;;;26.40;96.70;;;;;;8260258;28;20018;-88
2023/10/12 11:04:46;;;;;;;6.10;2.63;;;27.20;95.80;;;;;;8249071;28;20026;-87
2023/10/12 11:08:53;;;;;;;6.38;3.13;;;27.90;94.80;;;;;;8272634;28;20040;-90
2023/10/12 11:12:54;;;;;;;5.57;2.65;;;27.90;94.40;;;;;;8268346;28;20038;-88
2023/10/12 11:16:56;;;;;;;4.95;3.03;;;28.30;93.20;;;;;;8257381;28;20065;-86
2023/10/12 11:21:03;;;;;;;3.67;2.50;;;28.50;91.50;;;;;;8254437;28;20031;-86
2023/10/12 11:25:12;;;;;;;4.82;2.78;;;28.50;90.60;;;;;;8259813;28;20691;-87
2023/10/12 11:29:12;;;;;;;4.90;2.80;;;28.10;91.30;;;;;;8266200;28;20029;-87
2023/10/12 11:33:13;;;;;;;4.82;2.75;;;27.70;92.00;;;;;;8261760;28;20431;-89
2023/10/12 11:37:16;;;;;;;6.07;2.75;;;26.60;93.10;;;;;;8252091;28;20023;-89
2023/10/12 11:41:17;;;;;;;6.97;2.70;;;27.20;92.10;;;;;;8288988;28;20018;-87
2023/10/12 11:45:52;;;;;;;5.35;3.03;;;28.10;90.50;;;;;;8264105;28;20077;-90
2023/10/12 11:50:00;;;;;;;6.70;2.88;;;28.70;88.30;;;;;;8270841;28;20037;-86
2023/10/12 11:54:01;;;;;;;5.28;2.80;;;29.40;85.00;;;;;;8271773;28;20026;-88
2023/10/12 11:58:54;;;;;;;5.45;3.15;;;29.80;83.40;;;;;;8255831;28;20034;-91
2023/10/12 12:03:39;;;;;;;5.68;2.97;;;29.90;83.40;;;;;;8251142;28;20038;-88
2023/10/12 12:07:31;;;;;;;6.82;2.85;;;30.80;82.20;;;;;;8271957;28;20038;-87
2023/10/12 12:11:37;;;;;;;4.70;2.75;;;31.80;73.80;;;;;;8267940;28;20028;-88
2023/10/12 12:15:45;;;;;;;4.70;2.78;;;30.70;77.80;;;;;;8276215;28;20033;-87
2023/10/12 12:20:15;;;;;;;4.57;2.55;;;30.40;81.00;;;;;;8262875;28;20082;-88
2023/10/12 12:24:23;;;;;;;5.32;3.08;;;30.70;75.00;;;;;;8253511;28;20610;-88
2023/10/12 12:28:28;;;;;;;4.35;2.60;;;30.00;79.60;;;;;;8249798;28;20037;-89
2023/10/12 12:32:29;;;;;;;5.88;2.83;;;29.10;78.60;;;;;;8277674;28;20036;-88
2023/10/12 12:36:30;;;;;;;4.75;2.60;;;29.20;80.90;;;;;;8261917;28;20026;-89
2023/10/12 12:40:31;;;;;;;4.18;2.80;;;29.20;76.90;;;;;;8261708;28;20018;-88
2023/10/12 12:44:32;;;;;;;6.97;3.60;;;29.30;76.90;;;;;;8262182;28;20034;-89
2023/10/12 12:48:33;;;;;;;6.47;3.17;;;29.80;75.30;;;;;;8266887;28;20561;-88
2023/10/12 12:52:38;;;;;;;6.55;3.13;;;30.30;71.00;;;;;;8265487;28;20026;-90
2023/10/12 12:56:38;;;;;;;7.75;3.40;;;30.60;72.20;;;;;;8249277;28;20050;-89
2023/10/12 13:00:40;;;;;;;5.93;3.20;;;29.60;72.40;;;;;;8254978;28;20018;-89
2023/10/12 13:04:40;;;;;;;7.45;2.65;;;30.30;71.20;;;;;;8249950;28;20030;-87
2023/10/12 13:08:41;;;;;;;6.15;3.22;;;30.40;69.30;;;;;;8270805;28;20041;-88
2023/10/12 13:12:41;;;;;;;3.97;2.38;;;29.70;70.30;;;;;;8258358;28;20499;-89
2023/10/12 13:16:42;;;;;;;4.50;2.55;;;29.20;72.30;;;;;;8258061;28;20014;-88
2023/10/12 13:20:46;;;;;;;6.60;2.70;;;29.20;71.00;;;;;;8248806;28;20054;-89
2023/10/12 13:24:46;;;;;;;4.68;2.42;;;29.70;71.50;;;;;;8262554;28;20034;-87
2023/10/12 13:28:47;;;;;;;4.38;2.42;;;30.20;67.40;;;;;;8258422;28;20026;-88
2023/10/12 13:32:52;;;;;;;5.82;2.55;;;29.10;70.60;;;;;;8266673;28;20022;-89
2023/10/12 13:36:52;;;;;;;5.18;2.72;;;28.10;73.10;;;;;;8271674;28;20022;-87
2023/10/12 13:40:53;;;;;;;4.30;2.42;;;27.20;76.50;;;;;;8268397;28;20026;-88
2023/10/12 13:44:54;;;;;;;5.22;2.47;;;26.10;78.10;;;;;;8258629;28;20065;-87
2023/10/12 13:48:54;;;;;;;6.45;2.40;;;25.50;80.40;;;;;;8251313;28;20104;-89
2023/10/12 13:52:55;;;;;;;5.63;2.88;;;25.20;83.50;;;;;;8259855;28;20038;-88
2023/10/12 13:56:58;;;;;;;5.63;2.45;;;24.90;84.80;;;;;;8283257;28;20422;-88
2023/10/12 14:01:02;;;;;;;4.30;2.50;;;24.80;85.40;;;;;;8274156;28;20018;-88
2023/10/12 14:05:02;;;;;;;6.38;3.03;;;24.70;86.60;;;;;;8266310;28;20033;-89
2023/10/12 14:09:03;;;;;;;3.83;2.60;;;24.50;86.50;;;;;;8256320;28;20401;-88
2023/10/12 14:13:03;;;;;;;5.72;2.65;;;24.40;88.60;;;;;;8260210;28;20026;-89
2023/10/12 14:17:07;;;;;;;3.83;2.50;;;24.20;89.80;;;;;;8249421;28;20072;-88
2023/10/12 14:21:13;;;;;;;4.93;2.58;;;24.00;88.70;;;;;;8285791;28;20022;-89
2023/10/12 14:25:18;;;;;;;5.20;3.13;;;23.90;88.40;;;;;;8256152;28;20030;-88
2023/10/12 14:29:18;;;;;;;5.55;2.80;;;23.80;90.60;;;;;;8274820;28;20510;-89
2023/10/12 14:33:19;;;;;;;3.65;2.60;;;23.60;91.40;;;;;;8273291;28;20048;-87
2023/10/12 14:37:22;;;;;;;6.28;2.95;;;23.50;90.70;;;;;;8276365;28;20426;-88
2023/10/12 14:41:24;;;;;;;4.07;2.42;;;23.30;91.40;;;;;;8254851;28;20105;-88
2023/10/12 14:45:25;;;;;;;4.10;2.78;;;23.30;92.50;;;;;;8282334;28;20046;-88
2023/10/12 14:49:26;;;;;;;5.07;2.95;;;23.00;92.40;;;;;;8257809;28;20026;-89
2023/10/12 14:53:30;;;;;;;6.97;3.00;;;22.90;92.40;;;;;;8280915;28;20089;-89
2023/10/12 14:57:30;;;;;;;4.60;2.85;;;22.80;93.60;;;;;;8263655;28;20086;-88
2023/10/12 15:01:32;;;;;;;4.97;2.72;;;22.60;93.50;;;;;;8282382;28;20034;-89
2023/10/12 15:05:37;;;;;;;4.90;2.58;;;22.80;93.60;;;;;;8263277;28;20468;-89
2023/10/12 15:09:37;;;;;;;4.95;3.17;;;22.80;93.70;;;;;;8264193;28;20026;-89
2023/10/12 15:13:38;;;;;;;6.50;2.75;;;22.70;93.90;;;;;;8254992;28;20076;-87
2023/10/12 15:17:39;;;;;;;9.25;3.10;;;22.80;93.90;;;;;;8271360;28;20050;-88
2023/10/12 15:21:39;;;;;;;4.22;2.67;;;22.70;94.40;;;;;;8254868;28;20503;-88
2023/10/12 15:25:40;;;;;;;4.85;2.55;;;22.80;94.90;;;;;;8271941;28;20054;-89
2023/10/12 15:29:40;;;;;;;4.30;2.40;;;22.70;94.20;;;;;;8254689;28;20045;-89
2023/10/12 15:33:41;;;;;;;5.57;2.90;;;22.50;95.00;;;;;;8259919;28;20022;-87
2023/10/12 15:37:45;;;;;;;6.25;3.05;;;22.50;95.00;;;;;;8263726;28;20038;-88
2023/10/12 15:41:48;;;;;;;7.22;2.80;;;22.30;96.00;;;;;;8267199;28;20132;-88
2023/10/12 15:45:48;;;;;;;4.80;3.13;;;22.20;96.10;;;;;;8252046;28;20034;-87
2023/10/12 15:49:49;;;;;;;3.67;2.50;;;22.10;96.00;;;;;;8272496;28;20402;-86
2023/10/12 15:53:50;;;;;;;4.95;2.75;;;22.00;96.40;;;;;;8260267;28;20157;-88
2023/10/12 15:57:52;;;;;;;8.02;3.20;;;21.80;96.60;;;;;;8254129;28;20716;-88
2023/10/12 16:01:53;;;;;;;10.23;2.80;;;21.70;97.30;;;;;;8288331;28;20026;-87
2023/10/12 16:05:56;;;;;;;6.13;2.95;;;21.50;97.60;;;;;;8254593;28;20025;-88
2023/10/12 16:09:57;;;;;;;5.28;2.88;;;21.40;97.80;;;;;;8287353;28;20034;-87
2023/10/12 16:13:57;;;;;;;8.15;3.38;;;21.20;98.60;;;;;;8259583;28;20029;-87
2023/10/12 16:17:58;;;;;;;4.13;2.42;;;21.10;98.50;;;;;;8258795;28;20018;-86
2023/10/12 16:21:59;;;;;;;4.95;2.67;;;21.20;98.20;;;;;;8269956;28;20125;-86
2023/10/12 16:25:59;;;;;;;4.70;2.67;;;21.10;98.40;;;;;;8271629;28;20042;-87
2023/10/12 16:30:01;;;;;;;6.18;2.75;;;21.20;98.40;;;;;;8267180;28;20503;-87
2023/10/12 16:34:03;;;;;;;4.32;2.60;;;21.10;98.40;;;;;;8268325;28;20037;-86
2023/10/12 16:38:04;;;;;;;5.00;2.80;;;21.10;99.00;;;;;;8260014;28;20030;-88
2023/10/12 16:42:06;;;;;;;5.18;2.85;;;20.90;99.70;;;;;;8256003;28;20023;-88
2023/10/12 16:46:15;;;;;;;5.50;2.72;;;20.80;99.40;;;;;;8258272;28;20080;-87
2023/10/12 16:50:18;;;;;;;6.45;3.58;;;20.90;99.50;;;;;;8260637;28;20029;-87
2023/10/12 16:54:18;;;;;;;5.50;2.33;;;20.90;99.70;;;;;;8264344;28;20022;-87
2023/10/12 16:58:19;;;;;;;4.90;2.65;;;20.70;99.90;;;;;;8251668;28;20036;-88
2023/10/12 17:02:19;;;;;;;14.10;2.80;;;20.60;99.90;;;;;;8255564;28;20037;-89
2023/10/12 17:06:20;;;;;;;5.90;2.40;;;20.50;99.90;;;;;;8269492;28;20544;-89
2023/10/12 17:10:29;;;;;;;5.75;2.58;;;20.40;99.90;;;;;;8258414;28;20030;-88
2023/10/12 17:14:30;;;;;;;5.47;2.65;;;20.30;99.90;;;;;;8260354;28;20398;-88
2023/10/12 17:18:34;;;;;;;5.00;2.55;;;20.30;99.90;;;;;;8270320;28;20019;-88
2023/10/12 17:22:37;;;;;;;4.80;2.65;;;20.20;99.90;;;;;;8264448;28;20089;-88
2023/10/12 17:26:37;;;;;;;5.20;2.70;;;20.30;99.90;;;;;;8260090;28;20027;-87
2023/10/12 17:30:38;;;;;;;6.00;2.67;;;20.20;99.90;;;;;;8255318;28;20104;-87
2023/10/12 17:34:39;;;;;;;5.60;2.50;;;20.20;99.90;;;;;;8255957;28;20793;-87
2023/10/12 17:38:42;;;;;;;5.78;2.55;;;20.10;99.90;;;;;;8280484;28;20053;-88
2023/10/12 17:42:43;;;;;;;14.63;2.92;;;20.10;99.90;;;;;;8274530;28;20030;-88
2023/10/12 17:46:45;;;;;;;4.15;2.53;;;20.10;99.90;;;;;;8265624;28;20545;-87
2023/10/12 17:50:47;;;;;;;3.80;2.42;;;20.10;99.90;;;;;;8254446;28;20033;-87
2023/10/12 17:54:48;;;;;;;5.43;2.30;;;20.20;99.60;;;;;;8252037;28;20026;-88
2023/10/12 17:58:49;;;;;;;4.07;2.28;;;20.10;99.60;;;;;;8246469;28;20550;-87
2023/10/12 18:02:49;;;;;;;4.38;2.50;;;20.10;99.70;;;;;;8257910;28;20087;-87
2023/10/12 18:06:50;;;;;;;5.15;2.03;;;20.00;99.70;;;;;;8266734;28;20034;-88
2023/10/12 18:10:50;;;;;;;4.20;2.15;;;19.90;99.90;;;;;;8255387;28;20030;-88
2023/10/12 18:14:51;;;;;;;5.50;2.53;;;19.90;99.70;;;;;;8272029;28;20039;-89
2023/10/12 18:18:51;;;;;;;6.03;2.22;;;19.70;99.90;;;;;;8254977;28;20065;-89
2023/10/12 18:22:52;;;;;;;3.95;2.25;;;19.50;99.90;;;;;;8264699;28;20222;-88
2023/10/12 18:26:55;;;;;;;5.40;2.42;;;19.40;99.90;;;;;;8276149;28;20034;-88
2023/10/12 18:30:58;;;;;;;3.40;2.03;;;19.40;99.90;;;;;;8267233;28;20026;-89
2023/10/12 18:35:00;;;;;;;4.30;2.30;;;19.40;99.90;;;;;;8254329;28;20026;-88
2023/10/12 18:39:00;;;;;;;5.93;2.40;;;19.40;99.90;;;;;;8254093;28;20026;-88
2023/10/12 18:43:01;;;;;;;3.63;2.13;;;19.30;99.90;;;;;;8263710;28;20645;-89
2023/10/12 18:47:02;;;;;;;5.63;2.28;;;19.20;99.90;;;;;;8258847;28;20027;-89
2023/10/12 18:51:11;;;;;;;7.95;2.40;;;19.30;99.90;;;;;;8259269;28;20026;-87
2023/10/12 18:55:12;;;;;;;4.43;2.27;;;19.20;99.90;;;;;;8267955;28;20054;-87
2023/10/12 18:59:12;;;;;;;4.43;2.20;;;19.20;99.90;;;;;;8265818;28;20033;-88
2023/10/12 19:03:13;;;;;;;3.72;2.15;;;19.30;99.90;;;;;;8258826;28;20036;-88
2023/10/12 19:07:14;;;;;;;5.47;2.17;;;19.40;99.90;;;;;;8271881;28;20084;-87
2023/10/12 19:11:16;;;;;;;6.88;2.25;;;19.40;99.90;;;;;;8259076;28;20057;-87
2023/10/12 19:15:17;;;;;;;9.18;2.17;;;19.30;99.90;;;;;;8265515;28;20023;-87
2023/10/12 19:19:18;;;;;;;3.80;2.10;;;19.50;99.90;;;;;;8258696;28;20041;-87
2023/10/12 19:23:18;;;;;;;5.50;2.30;;;19.40;99.90;;;;;;8261276;28;20042;-88
2023/10/12 19:27:19;;;;;;;6.07;2.22;;;19.30;99.90;;;;;;8272353;28;20030;-87
2023/10/12 19:31:19;;;;;;;3.35;2.03;;;19.30;99.90;;;;;;8269638;28;20026;-88
2023/10/12 19:35:20;;;;;;;6.45;2.50;;;19.30;99.90;;;;;;8281712;28;20101;-87
2023/10/12 19:39:20;;;;;;;5.47;2.10;;;19.10;99.90;;;;;;8258677;28;20015;-87
2023/10/12 19:43:21;;;;;;;5.57;2.30;;;18.90;99.90;;;;;;8263711;28;20026;-88
2023/10/12 19:47:22;;;;;;;5.35;2.47;;;18.80;99.90;;;;;;8261463;28;20116;-89
2023/10/12 19:51:31;;;;;;;4.57;2.50;;;18.70;99.90;;;;;;8256219;28;20034;-90
2023/10/12 19:55:33;;;;;;;5.60;2.25;;;18.50;99.90;;;;;;8256520;28;20033;-88
2023/10/12 19:59:33;;;;;;;3.92;1.85;;;18.50;99.90;;;;;;8249932;28;20026;-88
2023/10/12 20:03:37;;;;;;;4.95;2.65;;;18.50;99.90;;;;;;8258528;28;20093;-89
2023/10/12 20:07:37;;;;;;;5.65;2.35;;;18.20;99.90;;;;;;8255373;28;20031;-88
2023/10/12 20:11:39;;;;;;;4.18;2.25;;;18.00;99.90;;;;;;8262690;28;20538;-88
2023/10/12 20:15:40;;;;;;;4.55;2.30;;;18.40;99.90;;;;;;8264083;28;20024;-89
2023/10/12 20:19:40;;;;;;;8.48;2.50;;;17.80;99.90;;;;;;8262917;28;20018;-88
2023/10/12 20:23:41;;;;;;;6.35;2.15;;;18.20;99.90;;;;;;8271372;28;20030;-88
2023/10/12 20:27:42;;;;;;;3.78;2.13;;;18.10;99.90;;;;;;8264485;28;20482;-88
2023/10/12 20:31:43;;;;;;;5.22;2.20;;;18.20;99.90;;;;;;8267128;28;20026;-88
2023/10/12 20:35:45;;;;;;;5.85;2.47;;;18.30;99.90;;;;;;8270577;28;20081;-88
2023/10/12 20:39:48;;;;;;;5.57;2.22;;;18.20;99.90;;;;;;8264645;28;20085;-87
2023/10/12 20:43:54;;;;;;;3.97;2.20;;;18.40;99.90;;;;;;8255715;28;20038;-88
2023/10/12 20:47:55;;;;;;;4.63;2.47;;;18.60;99.90;;;;;;8258699;28;20117;-87
2023/10/12 20:51:55;;;;;;;5.25;2.33;;;18.60;99.90;;;;;;8260416;28;20467;-88
2023/10/12 20:55:56;;;;;;;7.85;2.70;;;18.60;99.90;;;;;;8258495;28;20018;-88
2023/10/12 20:59:57;;;;;;;4.07;2.13;;;18.50;99.90;;;;;;8253155;28;20483;-88
2023/10/12 21:04:01;;;;;;;5.18;2.20;;;18.40;99.90;;;;;;8257698;28;20022;-87
2023/10/12 21:08:01;;;;;;;6.35;2.30;;;18.40;99.90;;;;;;8262011;28;20125;-88
2023/10/12 21:12:22;;;;;;;4.72;2.20;;;18.40;99.90;;;;;;8275594;28;20121;-88
2023/10/12 21:16:26;;;;;;;4.75;2.30;;;18.50;99.90;;;;;;8274956;28;20030;-87
2023/10/12 21:20:37;;;;;;;6.78;2.17;;;18.50;99.90;;;;;;8258372;28;20081;-87
2023/10/12 21:24:37;;;;;;;;;;;18.60;99.90;;;;;;8268751;28;20018;-86
2023/10/12 21:28:38;;;;;;;5.07;2.43;;;18.60;99.90;;;;;;8247370;28;19913;-88
2023/10/12 21:32:39;;;;;;;5.78;2.20;;;18.50;99.90;;;;;;8272162;28;20058;-89
2023/10/12 21:36:41;;;;;;;5.88;2.10;;;18.40;99.90;;;;;;8255580;28;20077;-88
2023/10/12 21:40:44;;;;;;;4.60;2.10;;;18.40;99.90;;;;;;8286070;28;20022;-87
2023/10/12 21:44:44;;;;;;;3.25;2.03;;;18.40;99.90;;;;;;8258808;28;20113;-88
2023/10/12 21:48:46;;;;;;;4.88;2.20;;;18.50;99.90;;;;;;8276103;28;20060;-87
2023/10/12 21:52:47;;;;;;;4.53;2.30;;;18.60;99.90;;;;;;8280097;28;20097;-87
2023/10/12 21:56:49;;;;;;;3.47;2.20;;;18.50;99.90;;;;;;8277641;28;20406;-89
2023/10/12 22:00:49;;;;;;;5.43;2.22;;;18.50;99.90;;;;;;8273517;28;20018;-89
2023/10/12 22:04:50;;;;;;;3.65;2.10;;;18.40;99.90;;;;;;8267043;28;20029;-88
2023/10/12 22:08:56;;;;;;;9.43;2.28;;;18.30;99.90;;;;;;8281748;28;20109;-89
2023/10/12 22:13:04;;;;;;;6.13;2.13;;;17.90;99.90;;;;;;8281145;28;20022;-89
2023/10/12 22:17:06;;;;;;;4.78;2.25;;;18.10;99.90;;;;;;8253944;28;20015;-87